Time;durP1;ratioP1;P1;durP2;ratioP2;P2;SDS_P1;SDS_P2;PMS_P1;PMS_P2;Temp;Humidity;BMP_temperature;BMP_pressure;BME280_temperature;BME280_humidity;BME280_pressure;Samples;Min_cycle;Max_cycle;Signal;HPM_P1;HPM_P2
2021/11/30 00:04:05;;;;;;;18.70;9.80;;;;;;;1.13;84.98;98399.42;228225;1194;139672;-66
2021/11/30 00:14:44;;;;;;;13.40;8.60;;;;;;;1.14;84.87;98410.09;228528;1194;139427;-67
2021/11/30 00:20:09;;;;;;;16.70;9.50;;;;;;;1.17;84.66;98413.64;228220;1194;138997;-68
2021/11/30 00:25:22;;;;;;;9.20;7.40;;;;;;;1.16;84.91;98420.09;229294;1193;140251;-68
2021/11/30 00:30:26;;;;;;;11.70;7.90;;;;;;;1.15;84.41;98429.87;230091;1193;140226;-68
2021/11/30 00:35:29;;;;;;;6.80;5.90;;;;;;;1.14;84.64;98449.77;230152;1193;140238;-69
2021/11/30 00:40:35;;;;;;;9.70;6.70;;;;;;;1.10;84.26;98450.59;228939;1193;139400;-69
2021/11/30 00:45:48;;;;;;;12.90;7.30;;;;;;;1.09;84.59;98459.71;228687;1193;141551;-68
2021/11/30 00:51:02;;;;;;;9.80;5.70;;;;;;;1.15;84.49;98467.58;230205;1193;143032;-69
2021/11/30 00:56:09;;;;;;;7.00;5.00;;;;;;;1.16;84.46;98476.55;229847;1193;139403;-69
2021/11/30 01:01:20;;;;;;;7.20;6.10;;;;;;;1.16;84.56;98483.93;228009;1193;139513;-67
2021/11/30 01:06:25;;;;;;;8.00;6.50;;;;;;;1.16;84.26;98488.98;229717;1193;139992;-68
2021/11/30 01:11:27;;;;;;;7.10;6.50;;;;;;;1.12;84.76;98492.54;227473;1194;140632;-68
2021/11/30 01:16:30;;;;;;;10.80;6.80;;;;;;;1.09;84.78;98496.21;228104;1180;139400;-67
2021/11/30 01:21:38;;;;;;;10.70;5.50;;;;;;;1.06;84.66;98495.25;227804;1193;140597;-67
2021/11/30 01:26:41;;;;;;;11.30;5.90;;;;;;;1.06;84.19;98498.67;228800;1193;150634;-68
2021/11/30 01:31:53;;;;;;;5.50;4.60;;;;;;;1.03;84.33;98500.66;229190;1192;140427;-67
2021/11/30 01:36:55;;;;;;;10.30;6.10;;;;;;;0.97;84.37;98496.17;228218;1193;139043;-68
2021/11/30 01:41:59;;;;;;;8.40;5.80;;;;;;;1.03;84.59;98497.39;227117;1194;140836;-68
2021/11/30 01:52:38;;;;;;;16.40;8.20;;;;;;;0.99;84.40;98506.39;227955;1193;140657;-67
2021/11/30 01:57:40;;;;;;;5.80;5.20;;;;;;;1.03;84.52;98508.77;228155;1193;140479;-68
2021/11/30 02:02:42;;;;;;;6.30;5.10;;;;;;;0.96;84.36;98510.27;227546;1195;139554;-67
2021/11/30 02:07:45;;;;;;;6.20;5.40;;;;;;;0.93;84.45;98513.41;228442;1193;139016;-67
2021/11/30 02:12:52;;;;;;;7.90;5.40;;;;;;;0.88;84.24;98521.66;227662;1193;140339;-67
2021/11/30 02:18:00;;;;;;;8.70;5.10;;;;;;;0.92;84.13;98528.00;230050;1192;141505;-67
2021/11/30 02:23:15;;;;;;;6.70;5.90;;;;;;;0.96;84.10;98528.88;228486;1193;139664;-68
2021/11/30 02:28:18;;;;;;;5.60;4.70;;;;;;;0.95;84.03;98528.35;229939;1193;139167;-68
2021/11/30 02:33:30;;;;;;;5.70;4.20;;;;;;;0.98;84.06;98531.45;227966;1193;138956;-68
2021/11/30 02:38:41;;;;;;;9.00;6.20;;;;;;;0.96;84.26;98533.23;229578;1193;138887;-70
2021/11/30 02:43:45;;;;;;;10.00;6.50;;;;;;;0.99;84.15;98530.77;230303;1193;140099;-69
2021/11/30 02:48:48;;;;;;;6.10;4.80;;;;;;;0.98;84.11;98523.74;228683;1193;140187;-69
2021/11/30 02:53:53;;;;;;;11.10;7.90;;;;;;;1.00;84.17;98525.48;230407;1193;139198;-69
2021/11/30 02:58:56;;;;;;;6.10;5.50;;;;;;;1.01;84.02;98533.44;230108;1193;139386;-69
2021/11/30 03:03:59;;;;;;;5.60;5.00;;;;;;;0.97;83.82;98539.41;229609;1192;139922;-68
2021/11/30 03:09:01;;;;;;;6.60;4.90;;;;;;;1.02;83.64;98544.95;230267;1193;139317;-68
2021/11/30 03:14:05;;;;;;;6.60;4.90;;;;;;;1.06;84.17;98542.28;230180;1193;139412;-68
2021/11/30 03:19:11;;;;;;;11.30;5.60;;;;;;;1.05;83.71;98544.50;228705;1194;138447;-68
2021/11/30 03:24:15;;;;;;;6.80;6.00;;;;;;;1.06;83.80;98550.35;229049;1193;141438;-67
2021/11/30 03:29:38;;;;;;;6.40;5.60;;;;;;;1.05;83.88;98552.95;228644;1193;139332;-67
2021/11/30 03:34:41;;;;;;;7.90;6.00;;;;;;;1.03;83.77;98552.45;228419;1186;138569;-67
2021/11/30 03:39:44;;;;;;;9.50;6.50;;;;;;;0.98;83.65;98552.33;228757;1183;139492;-67
2021/11/30 03:44:52;;;;;;;9.10;6.00;;;;;;;0.96;83.42;98552.48;228546;1193;139968;-67
2021/11/30 03:50:12;;;;;;;10.00;5.80;;;;;;;0.93;83.80;98555.28;228500;1193;139425;-67
2021/11/30 03:55:15;;;;;;;6.90;5.80;;;;;;;0.89;83.93;98550.41;228384;1193;138888;-67
2021/11/30 04:00:43;;;;;;;11.30;6.20;;;;;;;0.88;83.79;98549.44;229091;1193;138382;-67
2021/11/30 04:06:05;;;;;;;12.00;6.90;;;;;;;0.92;83.53;98540.90;228809;1193;140174;-66
2021/11/30 04:11:09;;;;;;;10.40;6.80;;;;;;;0.91;83.83;98536.04;228027;1193;139522;-67
2021/11/30 04:16:12;;;;;;;10.00;7.90;;;;;;;0.87;83.82;98532.84;229818;1193;139900;-67
2021/11/30 04:21:15;;;;;;;12.00;8.30;;;;;;;0.86;83.73;98536.85;228290;1193;139768;-66
2021/11/30 04:26:31;;;;;;;10.60;7.10;;;;;;;0.90;83.60;98536.80;229257;1193;139086;-67
2021/11/30 04:31:35;;;;;;;9.10;7.30;;;;;;;0.95;83.75;98532.19;229067;1193;139812;-67
2021/11/30 04:36:38;;;;;;;10.20;7.50;;;;;;;0.92;83.90;98529.56;230252;1193;138604;-66
2021/11/30 04:41:42;;;;;;;12.80;8.20;;;;;;;0.89;83.70;98522.80;229857;1193;139574;-70
2021/11/30 04:51:54;;;;;;;12.10;9.30;;;;;;;0.94;83.75;98521.20;230532;1193;139606;-68
2021/11/30 04:57:06;;;;;;;10.00;7.20;;;;;;;0.94;83.73;98520.15;228154;1193;140598;-67
2021/11/30 05:02:09;;;;;;;13.70;9.50;;;;;;;0.97;83.55;98522.45;230403;1187;141430;-67
2021/11/30 05:07:14;;;;;;;11.10;6.60;;;;;;;0.92;83.51;98524.36;230305;1193;139455;-70
2021/11/30 05:12:18;;;;;;;9.60;6.40;;;;;;;0.86;83.43;98525.90;230325;1190;139031;-70
2021/11/30 05:17:20;;;;;;;6.70;5.30;;;;;;;0.87;82.96;98518.55;228652;1193;139393;-68
2021/11/30 05:22:26;;;;;;;6.70;4.70;;;;;;;0.83;83.37;98517.55;227956;1193;139341;-67
2021/11/30 05:28:02;;;;;;;;;;;;;;;;;;;;;
2021/11/30 05:33:17;;;;;;;6.90;6.10;;;;;;;0.68;83.32;98515.64;228325;1193;139207;-67
2021/11/30 05:38:26;;;;;;;7.80;6.70;;;;;;;0.66;83.42;98514.17;228358;1193;138628;-69
2021/11/30 05:43:32;;;;;;;10.90;8.30;;;;;;;0.63;83.54;98510.98;229162;1193;139900;-67
2021/11/30 05:48:36;;;;;;;10.40;7.80;;;;;;;0.65;83.47;98503.81;229204;1193;140111;-69
2021/11/30 05:53:39;;;;;;;12.50;11.30;;;;;;;0.60;83.08;98498.01;228828;1193;140382;-71
2021/11/30 05:58:45;;;;;;;11.00;8.00;;;;;;;0.55;83.62;98509.55;227741;1193;140342;-69
2021/11/30 06:08:53;;;;;;;8.30;7.40;;;;;;;0.51;83.58;98516.84;229596;1193;140088;-68
2021/11/30 06:13:56;;;;;;;7.90;7.10;;;;;;;0.48;83.20;98518.29;227245;1193;138692;-66
2021/11/30 06:19:01;;;;;;;9.90;6.90;;;;;;;0.46;83.08;98518.05;227405;1193;149973;-66
2021/11/30 06:24:05;;;;;;;6.70;6.10;;;;;;;0.44;83.31;98513.96;229315;1193;139446;-66
2021/11/30 06:29:08;;;;;;;6.60;5.90;;;;;;;0.38;83.29;98514.48;229308;1193;139492;-67
2021/11/30 06:34:11;;;;;;;7.70;5.80;;;;;;;0.36;82.75;98516.77;228650;1193;140739;-66
2021/11/30 06:39:13;;;;;;;6.80;5.90;;;;;;;0.36;83.35;98516.16;228230;1193;139585;-65
2021/11/30 06:44:17;;;;;;;7.00;6.20;;;;;;;0.35;83.02;98506.67;227833;1193;139344;-68
2021/11/30 06:49:20;;;;;;;7.20;5.90;;;;;;;0.33;83.09;98501.48;227397;1193;139565;-66
2021/11/30 06:54:22;;;;;;;6.20;4.70;;;;;;;0.34;83.17;98495.66;228195;1193;140391;-67
2021/11/30 06:59:48;;;;;;;6.70;5.70;;;;;;;0.38;82.91;98499.71;227980;1193;140598;-67
2021/11/30 07:04:53;;;;;;;9.10;6.50;;;;;;;0.39;82.99;98500.12;228981;1193;140646;-68
2021/11/30 07:10:23;;;;;;;7.00;4.60;;;;;;;0.44;83.21;98491.50;229047;1193;140709;-67
2021/11/30 07:15:26;;;;;;;6.90;5.60;;;;;;;0.50;82.91;98489.41;230391;1193;141176;-68
2021/11/30 07:20:29;;;;;;;7.50;6.40;;;;;;;0.57;82.72;98480.98;230544;1193;139864;-69
2021/11/30 07:25:31;;;;;;;8.60;7.50;;;;;;;0.60;82.69;98475.94;230120;1193;139804;-69
2021/11/30 07:30:55;;;;;;;6.50;5.70;;;;;;;0.64;82.73;98471.44;229013;1193;140680;-66
2021/11/30 07:36:05;;;;;;;9.20;6.50;;;;;;;0.69;83.07;98454.27;227737;1193;139997;-66
2021/11/30 07:41:09;;;;;;;10.00;8.30;;;;;;;0.83;82.54;98441.39;228856;1193;141615;-67
2021/11/30 07:46:11;;;;;;;11.90;8.20;;;;;;;0.89;82.76;98432.02;228160;1193;203868;-67
2021/11/30 07:51:16;;;;;;;10.20;7.30;;;;;;;0.88;82.73;98425.16;229024;1193;139032;-67
2021/11/30 07:56:20;;;;;;;9.30;6.60;;;;;;;0.85;82.65;98415.31;229396;1193;139890;-67
2021/11/30 08:01:22;;;;;;;11.10;7.60;;;;;;;0.80;82.86;98406.73;228056;1193;139681;-68
2021/11/30 08:06:30;;;;;;;13.30;9.80;;;;;;;0.81;82.57;98399.59;228472;1195;139047;-67
2021/11/30 08:11:35;;;;;;;;;;;;;;;0.84;82.58;98379.65;229297;1194;140710;-67
2021/11/30 08:16:38;;;;;;;14.30;9.50;;;;;;;0.84;83.12;98362.66;228300;1195;126157;-67
2021/11/30 08:21:42;;;;;;;13.20;7.60;;;;;;;0.87;83.07;98349.41;227653;1195;141300;-68
2021/11/30 08:26:54;;;;;;;14.90;9.20;;;;;;;0.94;82.69;98342.19;228255;1193;140859;-67
2021/11/30 08:31:58;;;;;;;10.30;7.50;;;;;;;1.02;82.70;98338.86;228017;1193;139766;-66
2021/11/30 08:37:05;;;;;;;12.50;8.10;;;;;;;1.14;83.01;98332.56;227833;1193;139685;-67
2021/11/30 08:42:10;;;;;;;12.60;8.50;;;;;;;1.19;83.00;98319.05;228852;1193;138970;-67
2021/11/30 08:47:18;;;;;;;16.10;9.60;;;;;;;1.26;82.95;98319.48;228623;1193;139884;-67
2021/11/30 08:52:30;;;;;;;15.90;9.80;;;;;;;1.28;82.70;98312.90;227673;1193;138794;-67
2021/11/30 08:57:32;;;;;;;13.40;9.50;;;;;;;1.31;82.78;98297.90;229329;1193;138733;-68
2021/11/30 09:02:37;;;;;;;15.80;9.00;;;;;;;1.37;83.09;98285.48;227974;1193;138412;-67
2021/11/30 09:07:48;;;;;;;12.20;8.90;;;;;;;1.40;82.71;98276.73;227676;1193;141119;-71
2021/11/30 09:13:03;;;;;;;12.90;9.50;;;;;;;1.46;82.71;98261.88;229719;1193;140112;-70
2021/11/30 09:18:06;;;;;;;12.70;9.40;;;;;;;1.53;82.61;98248.07;230005;1193;139674;-70
2021/11/30 09:23:11;;;;;;;16.20;9.10;;;;;;;1.60;82.47;98227.98;230345;1193;139068;-69
2021/11/30 09:28:20;;;;;;;13.80;9.20;;;;;;;1.71;82.29;98219.42;230265;1193;140253;-69
2021/11/30 09:33:25;;;;;;;19.30;11.20;;;;;;;1.76;82.21;98201.16;230184;1187;140025;-69
2021/11/30 09:38:28;;;;;;;13.90;9.80;;;;;;;1.83;82.42;98190.33;228939;1193;140142;-68
2021/11/30 09:43:38;;;;;;;17.50;10.50;;;;;;;1.91;82.23;98168.63;228517;1193;139211;-71
2021/11/30 09:48:44;;;;;;;16.50;10.70;;;;;;;2.00;81.98;98154.95;229557;1193;139738;-68
2021/11/30 09:53:50;;;;;;;15.80;10.70;;;;;;;2.13;81.81;98143.45;228429;1186;150335;-67
2021/11/30 09:59:03;;;;;;;16.10;11.00;;;;;;;2.24;81.79;98127.15;228475;1193;139513;-67
2021/11/30 10:04:12;;;;;;;16.30;8.70;;;;;;;2.30;81.91;98119.33;227851;1193;141380;-69
2021/11/30 10:09:21;;;;;;;14.60;9.70;;;;;;;2.36;81.48;98096.47;228050;1193;138942;-66
2021/11/30 10:14:27;;;;;;;13.50;8.40;;;;;;;2.38;81.52;98084.88;228343;1193;138909;-66
2021/11/30 10:19:29;;;;;;;13.50;9.20;;;;;;;2.36;81.40;98062.77;227722;1195;138942;-68
2021/11/30 10:24:32;;;;;;;15.80;8.70;;;;;;;2.39;81.42;98048.52;227607;1193;140280;-68
2021/11/30 10:29:42;;;;;;;14.10;9.40;;;;;;;2.36;81.32;98026.57;229640;1180;138992;-67
2021/11/30 10:35:10;;;;;;;;;;;;;;;;;;;;;
2021/11/30 10:40:24;;;;;;;12.00;8.00;;;;;;;2.27;81.24;97997.89;228612;1193;139241;-67
2021/11/30 10:45:57;;;;;;;15.90;9.20;;;;;;;2.37;81.09;97984.52;228833;1193;139641;-67
2021/11/30 10:51:01;;;;;;;13.00;9.10;;;;;;;2.43;81.01;97966.30;227520;1193;150309;-68
2021/11/30 10:56:07;;;;;;;14.40;7.90;;;;;;;2.48;81.13;97943.45;229160;1193;139089;-68
2021/11/30 11:02:11;;;;;;;16.90;10.00;;;;;;;2.57;80.94;97923.56;228749;1193;140325;-68
2021/11/30 11:07:13;;;;;;;14.00;8.60;;;;;;;2.57;80.75;97901.21;229581;1193;139947;-70
2021/11/30 11:12:35;;;;;;;17.70;8.30;;;;;;;2.62;80.84;97874.18;230314;1193;138668;-68
2021/11/30 11:17:38;;;;;;;8.80;6.40;;;;;;;2.62;80.35;97853.46;230198;1193;140869;-70
2021/11/30 11:22:56;;;;;;;10.60;7.50;;;;;;;2.57;80.03;97840.77;230056;1193;141373;-71
2021/11/30 11:27:58;;;;;;;11.20;8.00;;;;;;;2.40;80.14;97826.55;230150;1193;140011;-71
2021/11/30 11:33:02;;;;;;;11.80;7.40;;;;;;;2.27;80.17;97814.27;230168;1186;141215;-70
2021/11/30 11:38:05;;;;;;;12.20;8.20;;;;;;;2.27;80.50;97793.39;228367;1193;141995;-67
2021/11/30 11:43:08;;;;;;;7.70;6.90;;;;;;;2.37;80.50;97777.48;229301;1193;140442;-68
2021/11/30 11:48:11;;;;;;;12.90;9.10;;;;;;;2.37;80.22;97762.56;228940;1193;139685;-65
2021/11/30 11:53:28;;;;;;;11.70;8.30;;;;;;;2.39;80.33;97745.70;229611;1193;141372;-66
2021/11/30 11:58:31;;;;;;;7.10;6.30;;;;;;;2.33;80.14;97725.02;228988;1193;141087;-67
2021/11/30 12:03:50;;;;;;;9.90;7.90;;;;;;;2.20;80.17;97704.45;228822;1193;141078;-66
2021/11/30 12:09:20;;;;;;;11.00;9.30;;;;;;;2.16;80.05;97686.05;228495;1193;140202;-67
2021/11/30 12:14:37;;;;;;;13.00;10.00;;;;;;;2.12;80.17;97667.22;229516;1194;139300;-68
2021/11/30 12:19:44;;;;;;;11.50;10.10;;;;;;;2.07;80.25;97654.45;228965;1193;139908;-68
2021/11/30 12:24:47;;;;;;;12.80;10.20;;;;;;;1.95;79.96;97643.99;227861;1193;139578;-66
2021/11/30 12:29:51;;;;;;;14.20;12.30;;;;;;;1.83;80.30;97630.85;228553;1193;140119;-66
2021/11/30 12:35:00;;;;;;;12.20;9.30;;;;;;;1.71;80.39;97609.37;228191;1193;139976;-66
2021/11/30 12:40:11;;;;;;;9.10;8.00;;;;;;;1.60;80.36;97593.74;228522;1193;139918;-68
2021/11/30 12:45:39;;;;;;;12.10;9.20;;;;;;;1.51;80.93;97574.54;228711;1193;140767;-70
2021/11/30 12:50:58;;;;;;;;;;;;;;;;;;;;;
2021/11/30 12:56:10;;;;;;;12.90;7.80;;;;;;;1.31;81.31;97553.58;228549;1193;140036;-66
2021/11/30 13:01:21;;;;;;;15.80;7.30;;;;;;;1.28;81.23;97539.06;227777;1193;141552;-65
2021/11/30 13:06:35;;;;;;;;;;;;;;;;;;;;;
2021/11/30 13:11:43;;;;;;;15.40;7.10;;;;;;;1.15;81.68;97508.30;228286;1193;138912;-66
2021/11/30 13:16:46;;;;;;;6.90;5.50;;;;;;;1.15;81.84;97497.16;227865;1193;139080;-66
2021/11/30 13:21:58;;;;;;;8.00;6.40;;;;;;;1.12;81.74;97487.33;230114;1193;139580;-69
2021/11/30 13:27:21;;;;;;;9.40;6.10;;;;;;;1.02;81.98;97475.98;229491;1193;140899;-67
2021/11/30 13:32:27;;;;;;;9.00;5.60;;;;;;;0.97;81.85;97457.41;230300;1193;139472;-67
2021/11/30 13:37:32;;;;;;;9.50;6.80;;;;;;;0.99;82.11;97453.35;229521;1193;140895;-68
2021/11/30 13:42:51;;;;;;;8.00;6.00;;;;;;;1.01;82.20;97440.91;229431;1193;139690;-67
2021/11/30 13:47:53;;;;;;;8.40;5.60;;;;;;;0.99;82.43;97438.05;229139;1193;138722;-65
2021/11/30 13:53:16;;;;;;;7.40;5.80;;;;;;;0.95;82.57;97432.44;229514;1193;138781;-68
2021/11/30 13:58:57;;;;;;;8.60;5.30;;;;;;;0.95;82.65;97417.21;227263;1193;140285;-67
2021/11/30 14:03:56;;;;;;;13.70;5.60;;;;;;;0.92;82.55;97413.04;228353;1193;139391;-68
2021/11/30 14:09:13;;;;;;;7.40;5.20;;;;;;;0.87;82.70;97410.29;228869;1193;140853;-67
2021/11/30 14:14:21;;;;;;;8.20;6.00;;;;;;;0.82;82.61;97395.88;227689;1193;139425;-69
2021/11/30 14:19:34;;;;;;;;;;;;;;;0.81;82.79;97384.41;228911;1193;141015;-68
2021/11/30 14:25:06;;;;;;;9.10;4.70;;;;;;;0.77;83.20;97383.79;229513;1193;126050;-70
2021/11/30 14:30:14;;;;;;;7.30;5.20;;;;;;;0.76;83.58;97387.48;227447;1193;139992;-67
2021/11/30 14:35:18;;;;;;;7.00;5.70;;;;;;;0.79;83.41;97381.02;227949;1193;139413;-67
2021/11/30 14:40:40;;;;;;;6.40;4.60;;;;;;;0.79;83.76;97362.08;229128;1193;140288;-67
2021/11/30 14:45:51;;;;;;;4.40;4.00;;;;;;;0.77;83.47;97362.48;229342;1193;141653;-67
2021/11/30 14:50:58;;;;;;;4.40;4.00;;;;;;;0.77;83.36;97359.98;228784;1193;140078;-70
2021/11/30 14:56:19;;;;;;;6.60;3.60;;;;;;;0.81;83.81;97352.58;229026;1193;139950;-67
2021/11/30 15:01:31;;;;;;;4.10;3.40;;;;;;;0.80;83.38;97334.55;228961;1193;139099;-67
2021/11/30 15:06:37;;;;;;;5.30;3.60;;;;;;;0.78;83.85;97346.85;229531;1193;138692;-68
2021/11/30 15:11:53;;;;;;;21.30;6.70;;;;;;;0.80;83.67;97347.20;227797;1193;149769;-70
2021/11/30 15:16:59;;;;;;;15.60;8.70;;;;;;;0.82;83.68;97342.15;227360;1194;142044;-70
2021/11/30 15:22:26;;;;;;;5.40;3.70;;;;;;;0.80;84.09;97332.63;228378;1193;139981;-68
2021/11/30 15:27:37;;;;;;;4.70;3.80;;;;;;;0.86;84.02;97333.08;230072;1193;140703;-69
2021/11/30 15:32:40;;;;;;;4.10;3.70;;;;;;;0.90;84.29;97338.35;230436;1194;141760;-72
2021/11/30 15:37:42;;;;;;;6.00;5.50;;;;;;;0.95;84.24;97327.63;230352;1193;141341;-71
2021/11/30 15:42:45;;;;;;;5.00;4.00;;;;;;;0.97;83.84;97325.52;230124;1193;139454;-68
2021/11/30 15:47:47;;;;;;;5.70;4.60;;;;;;;0.99;83.96;97332.11;230132;1193;142470;-66
2021/11/30 15:52:50;;;;;;;6.40;5.10;;;;;;;0.95;84.10;97329.15;228970;1194;139773;-65
2021/11/30 15:57:52;;;;;;;4.10;3.70;;;;;;;0.96;84.31;97321.71;228941;1194;140338;-68
2021/11/30 16:03:00;;;;;;;6.40;4.80;;;;;;;1.03;84.09;97317.34;227896;1194;139884;-67
2021/11/30 16:08:03;;;;;;;8.10;6.40;;;;;;;1.06;84.51;97310.21;227507;1188;140211;-69
2021/11/30 16:13:06;;;;;;;6.80;4.80;;;;;;;1.08;84.49;97309.41;229133;1193;140927;-68
2021/11/30 16:18:09;;;;;;;6.10;5.30;;;;;;;1.14;84.70;97313.21;227718;1193;140866;-68
2021/11/30 16:23:12;;;;;;;7.30;5.80;;;;;;;1.19;84.76;97310.54;228730;1193;139680;-68
2021/11/30 16:28:17;;;;;;;5.30;4.80;;;;;;;1.23;84.91;97305.54;227648;1193;140864;-68
2021/11/30 16:33:21;;;;;;;6.80;5.50;;;;;;;1.28;85.10;97306.00;228316;1193;139898;-67
2021/11/30 16:38:25;;;;;;;6.80;5.50;;;;;;;1.31;85.15;97301.98;227791;1193;140685;-67
2021/11/30 16:43:31;;;;;;;11.50;6.00;;;;;;;1.30;85.09;97294.93;227884;1193;140470;-67
2021/11/30 16:48:34;;;;;;;8.50;6.40;;;;;;;1.38;85.04;97292.86;227929;1193;141445;-68
2021/11/30 16:53:39;;;;;;;7.50;5.10;;;;;;;1.41;85.29;97292.41;228718;1194;141389;-65
2021/11/30 16:59:00;;;;;;;7.30;5.80;;;;;;;1.45;85.39;97290.63;228916;1194;140154;-67
2021/11/30 17:04:03;;;;;;;8.00;6.30;;;;;;;1.52;85.53;97284.27;227866;1180;139788;-68
2021/11/30 17:09:06;;;;;;;7.40;4.00;;;;;;;1.55;85.31;97285.22;228418;1193;139475;-65
2021/11/30 17:14:08;;;;;;;18.50;10.80;;;;;;;1.55;85.09;97278.88;228060;1193;139901;-67
2021/11/30 17:19:10;;;;;;;15.70;9.20;;;;;;;1.57;85.25;97280.33;227705;1193;139835;-65
2021/11/30 17:24:17;;;;;;;10.50;7.30;;;;;;;1.56;85.36;97291.81;228570;1193;139285;-66
2021/11/30 17:29:29;;;;;;;9.20;5.40;;;;;;;1.56;85.30;97287.19;230425;1193;139130;-70
2021/11/30 17:34:31;;;;;;;7.80;6.50;;;;;;;1.58;85.38;97299.86;230348;1193;140162;-69
2021/11/30 17:39:38;;;;;;;5.00;4.60;;;;;;;1.62;85.34;97306.04;230514;1193;139960;-70
2021/11/30 17:44:49;;;;;;;7.80;6.00;;;;;;;1.62;85.17;97308.56;230583;1192;138206;-67
2021/11/30 17:49:53;;;;;;;8.30;6.80;;;;;;;1.64;85.16;97309.81;230247;1193;140192;-66
2021/11/30 17:55:16;;;;;;;8.40;5.90;;;;;;;1.68;85.18;97318.66;230127;1193;140914;-67
2021/11/30 18:00:20;;;;;;;9.30;5.90;;;;;;;1.71;85.31;97310.98;228786;1193;139190;-62
2021/11/30 18:05:26;;;;;;;6.50;4.70;;;;;;;1.74;85.30;97309.77;227699;1193;139414;-65
2021/11/30 18:10:29;;;;;;;7.60;5.80;;;;;;;1.73;85.01;97325.71;228572;1193;139028;-66
2021/11/30 18:15:41;;;;;;;9.90;6.30;;;;;;;1.72;85.45;97329.01;227952;1192;139229;-65
2021/11/30 18:20:45;;;;;;;7.40;5.50;;;;;;;1.75;85.66;97330.37;227938;1193;141023;-66
2021/11/30 18:25:47;;;;;;;13.20;7.90;;;;;;;1.75;85.87;97331.58;229275;1193;140062;-66
2021/11/30 18:30:50;;;;;;;12.70;7.20;;;;;;;1.78;85.74;97334.11;229067;1193;138913;-66
2021/11/30 18:35:53;;;;;;;12.70;6.40;;;;;;;1.82;85.34;97337.22;229624;1192;139800;-68
2021/11/30 18:41:00;;;;;;;8.00;5.20;;;;;;;1.82;85.54;97341.91;227976;1193;163715;-66
2021/11/30 18:46:04;;;;;;;9.30;5.10;;;;;;;1.82;85.76;97339.39;227990;1193;159813;-66
2021/11/30 18:51:07;;;;;;;13.60;6.80;;;;;;;1.85;85.43;97347.81;228023;1195;141309;-66
2021/11/30 18:56:14;;;;;;;8.00;4.50;;;;;;;1.89;85.64;97357.34;227795;1193;140146;-64
2021/11/30 19:01:18;;;;;;;11.50;6.60;;;;;;;1.91;85.78;97361.20;229643;1193;140472;-67
2021/11/30 19:06:24;;;;;;;11.10;6.30;;;;;;;1.96;85.73;97366.45;228333;1193;139770;-64
2021/11/30 19:11:32;;;;;;;8.40;5.80;;;;;;;1.96;85.59;97367.65;228538;1192;139790;-66
2021/11/30 19:16:36;;;;;;;12.20;6.00;;;;;;;1.96;85.93;97374.23;229065;1193;141236;-65
2021/11/30 19:21:41;;;;;;;11.80;8.10;;;;;;;2.00;85.72;97380.98;227712;1193;140506;-65
2021/11/30 19:26:49;;;;;;;7.20;4.90;;;;;;;2.00;85.81;97385.27;230134;1194;139475;-66
2021/11/30 19:31:54;;;;;;;7.90;4.50;;;;;;;2.05;85.71;97387.74;228472;1195;140465;-67
2021/11/30 19:36:58;;;;;;;5.90;4.30;;;;;;;2.12;85.76;97392.64;227826;1193;141136;-66
2021/11/30 19:42:03;;;;;;;10.00;4.80;;;;;;;2.12;85.56;97397.48;230520;1193;140081;-67
2021/11/30 19:47:09;;;;;;;7.20;5.60;;;;;;;2.13;85.96;97407.32;230167;1193;140126;-69
2021/11/30 19:52:13;;;;;;;8.70;6.10;;;;;;;2.19;85.32;97407.66;229531;1193;139919;-69
2021/11/30 19:57:17;;;;;;;6.90;3.60;;;;;;;2.24;85.42;97411.39;229517;1193;141473;-67
2021/11/30 20:07:44;;;;;;;5.00;4.30;;;;;;;2.27;85.23;97416.65;228301;1193;139819;-67
2021/11/30 20:12:49;;;;;;;6.50;4.90;;;;;;;2.25;85.21;97418.66;228631;1193;140504;-67
2021/11/30 20:17:56;;;;;;;10.20;4.90;;;;;;;2.23;85.32;97427.55;229267;1193;141504;-67
2021/11/30 20:23:02;;;;;;;8.50;3.90;;;;;;;2.23;85.61;97436.44;228626;1193;138927;-67
2021/11/30 20:28:09;;;;;;;10.80;4.00;;;;;;;2.21;85.22;97447.24;228027;1193;139057;-66
2021/11/30 20:33:25;;;;;;;5.30;4.00;;;;;;;2.20;85.30;97450.33;228056;1194;139289;-67
2021/11/30 20:43:51;;;;;;;6.30;3.80;;;;;;;2.20;85.69;97458.52;229095;1193;139025;-67
2021/11/30 20:48:55;;;;;;;12.20;5.50;;;;;;;2.22;85.37;97471.85;229438;1193;138516;-67
2021/11/30 20:54:00;;;;;;;11.00;5.10;;;;;;;2.25;85.63;97481.00;227847;1193;139159;-67
2021/11/30 20:59:04;;;;;;;8.50;5.20;;;;;;;2.24;85.44;97490.23;228058;1193;141008;-66
2021/11/30 21:04:11;;;;;;;8.80;4.40;;;;;;;2.28;85.47;97503.55;228842;1193;144480;-67
2021/11/30 21:09:17;;;;;;;7.40;3.60;;;;;;;2.23;85.77;97509.20;228709;1193;140185;-67
2021/11/30 21:14:20;;;;;;;9.80;4.00;;;;;;;2.21;85.66;97527.02;228030;1194;140779;-67
2021/11/30 21:19:23;;;;;;;12.50;4.00;;;;;;;2.25;85.68;97535.89;229591;1193;161214;-69
2021/11/30 21:24:26;;;;;;;7.40;4.50;;;;;;;2.25;85.76;97552.14;229686;1193;139671;-67
2021/11/30 21:29:28;;;;;;;4.30;2.60;;;;;;;2.27;85.75;97566.59;229936;1192;139678;-67
2021/11/30 21:34:32;;;;;;;3.50;2.10;;;;;;;2.26;85.50;97576.30;230263;1193;139857;-68
2021/11/30 21:39:36;;;;;;;6.70;3.40;;;;;;;2.27;85.82;97582.35;230132;1193;138564;-68
2021/11/30 21:44:39;;;;;;;11.80;6.10;;;;;;;2.36;85.69;97598.67;230459;1193;139167;-67
2021/11/30 21:49:43;;;;;;;9.10;3.40;;;;;;;2.43;85.61;97609.91;230417;1192;139473;-70
2021/11/30 21:54:51;;;;;;;6.50;3.70;;;;;;;2.44;85.48;97624.44;229038;1193;139343;-67
2021/11/30 22:00:15;;;;;;;8.40;4.60;;;;;;;2.47;85.43;97638.84;228576;1193;139803;-68
2021/11/30 22:05:21;;;;;;;5.40;3.10;;;;;;;2.48;85.56;97663.52;229058;1193;140857;-68
2021/11/30 22:10:25;;;;;;;4.30;3.80;;;;;;;2.44;85.67;97668.02;228910;1185;139724;-68
2021/11/30 22:15:27;;;;;;;3.90;3.10;;;;;;;2.44;85.47;97681.49;229580;1193;139236;-67
2021/11/30 22:20:32;;;;;;;6.80;3.30;;;;;;;2.42;85.47;97700.46;227982;1193;138957;-67
2021/11/30 22:25:45;;;;;;;6.30;3.40;;;;;;;2.40;85.92;97713.49;227969;1193;138482;-66
2021/11/30 22:30:48;;;;;;;7.30;4.00;;;;;;;2.36;85.76;97720.63;228265;1193;140021;-67
2021/11/30 22:35:52;;;;;;;4.90;3.50;;;;;;;2.34;85.46;97732.02;228079;1193;141225;-67
2021/11/30 22:40:55;;;;;;;8.10;3.10;;;;;;;2.33;85.78;97747.42;228884;1193;139769;-67
2021/11/30 22:46:00;;;;;;;6.10;3.60;;;;;;;2.31;85.73;97755.10;228518;1193;138306;-68
2021/11/30 22:51:02;;;;;;;6.90;3.80;;;;;;;2.31;85.60;97771.52;228113;1193;138666;-66
2021/11/30 22:56:06;;;;;;;3.20;2.80;;;;;;;2.29;85.63;97780.09;228575;1193;151038;-67
2021/11/30 23:01:10;;;;;;;4.20;3.10;;;;;;;2.23;85.61;97788.84;228866;1193;139357;-67
2021/11/30 23:06:14;;;;;;;4.50;3.30;;;;;;;2.26;85.81;97799.88;227539;1195;139681;-67
2021/11/30 23:11:17;;;;;;;3.90;3.20;;;;;;;2.30;85.72;97810.61;228759;1193;141239;-66
2021/11/30 23:16:20;;;;;;;6.90;3.70;;;;;;;2.26;85.57;97822.20;229121;1193;140260;-66
2021/11/30 23:21:28;;;;;;;4.30;4.00;;;;;;;2.26;85.82;97828.50;228244;1193;142271;-66
2021/11/30 23:26:34;;;;;;;9.40;4.60;;;;;;;2.30;85.34;97838.16;228849;1193;140054;-66
2021/11/30 23:31:40;;;;;;;4.20;3.30;;;;;;;2.27;85.46;97847.66;228746;1193;139852;-66
2021/11/30 23:36:45;;;;;;;5.50;4.40;;;;;;;2.23;85.40;97863.61;229376;1193;139825;-67
2021/11/30 23:41:49;;;;;;;4.60;4.10;;;;;;;2.24;85.39;97867.52;229038;1193;141217;-66
2021/11/30 23:46:53;;;;;;;5.40;3.00;;;;;;;2.27;85.56;97879.61;229068;1193;140819;-67
2021/11/30 23:51:56;;;;;;;4.60;4.00;;;;;;;2.25;85.47;97892.63;229175;1193;140354;-66
2021/11/30 23:57:00;;;;;;;4.90;4.40;;;;;;;2.28;85.71;97909.69;228908;1193;139537;-67
